Time;durP1;ratioP1;P1;durP2;ratioP2;P2;SDS_P1;SDS_P2;PMS_P1;PMS_P2;Temp;Humidity;BMP_temperature;BMP_pressure;BME280_temperature;BME280_humidity;BME280_pressure;Samples;Min_cycle;Max_cycle;Signal;HPM_P1;HPM_P2
2022/08/15 00:00:27;;;;;;;23.08;21.58;;;23.00;99.90;;;;;;5038854;28;20106;-72
2022/08/15 00:02:57;;;;;;;24.17;22.30;;;22.90;99.90;;;;;;5051227;28;20116;-70
2022/08/15 00:05:33;;;;;;;23.50;22.00;;;22.80;99.90;;;;;;5043492;28;20051;-73
2022/08/15 00:08:06;;;;;;;23.98;22.30;;;22.60;99.90;;;;;;5018521;28;20052;-72
2022/08/15 00:10:58;;;;;;;22.75;21.45;;;22.60;99.90;;;;;;5039015;28;20540;-71
2022/08/15 00:13:57;;;;;;;23.60;22.10;;;22.50;99.90;;;;;;5048225;28;20039;-72
2022/08/15 00:16:32;;;;;;;23.75;22.20;;;22.40;99.90;;;;;;5053657;28;20538;-72
2022/08/15 00:19:03;;;;;;;24.45;22.80;;;22.50;99.90;;;;;;5051511;28;20059;-72
2022/08/15 00:21:31;;;;;;;26.10;24.20;;;22.50;99.90;;;;;;5044331;28;20040;-71
2022/08/15 00:23:58;;;;;;;26.02;24.33;;;22.40;99.90;;;;;;5044680;28;20048;-72
2022/08/15 00:26:26;;;;;;;25.92;24.23;;;22.40;99.90;;;;;;5044425;28;20145;-71
2022/08/15 00:29:15;;;;;;;27.38;25.42;;;22.50;99.90;;;;;;5037596;28;20048;-71
2022/08/15 00:31:42;;;;;;;27.08;25.27;;;22.50;99.90;;;;;;5047250;28;20055;-70
2022/08/15 00:34:12;;;;;;;27.42;25.65;;;22.50;99.90;;;;;;5050311;28;20141;-71
2022/08/15 00:37:00;;;;;;;27.73;25.85;;;22.40;99.90;;;;;;5043665;28;20531;-71
2022/08/15 00:39:32;;;;;;;27.60;25.75;;;22.40;99.90;;;;;;5047145;28;20036;-72
2022/08/15 00:42:05;;;;;;;27.35;25.40;;;22.40;99.90;;;;;;5033442;28;20050;-72
2022/08/15 00:44:40;;;;;;;28.02;26.13;;;22.50;99.90;;;;;;5046044;28;20620;-72
2022/08/15 00:47:28;;;;;;;27.90;26.00;;;22.40;99.90;;;;;;5043610;28;20048;-72
2022/08/15 00:50:06;;;;;;;28.02;26.05;;;22.40;99.90;;;;;;5043304;28;20235;-71
2022/08/15 00:52:53;;;;;;;29.35;27.23;;;22.20;99.90;;;;;;5040976;28;20049;-72
2022/08/15 00:55:21;;;;;;;28.75;26.75;;;22.20;99.90;;;;;;5049327;28;20385;-71
2022/08/15 00:57:53;;;;;;;27.98;26.08;;;22.20;99.90;;;;;;5056108;28;20044;-72
2022/08/15 01:00:38;;;;;;;28.48;26.58;;;22.20;99.90;;;;;;5036737;28;20044;-72
2022/08/15 01:03:24;;;;;;;28.65;26.73;;;22.30;99.90;;;;;;5041479;28;20370;-71
2022/08/15 01:05:56;;;;;;;28.58;26.45;;;22.30;99.90;;;;;;5057855;28;20365;-72
2022/08/15 01:08:29;;;;;;;26.48;24.77;;;22.40;99.90;;;;;;5028385;28;20127;-71
2022/08/15 01:11:27;;;;;;;27.95;25.98;;;22.40;99.90;;;;;;5044331;28;20053;-71
2022/08/15 01:14:01;;;;;;;27.45;25.73;;;22.30;99.90;;;;;;5054362;28;20068;-71
2022/08/15 01:16:49;;;;;;;26.20;24.48;;;22.30;99.90;;;;;;5044933;28;20048;-72
2022/08/15 01:19:28;;;;;;;27.20;25.30;;;22.20;99.90;;;;;;5042406;28;20162;-71
2022/08/15 01:22:23;;;;;;;27.45;25.55;;;22.20;99.90;;;;;;5035390;28;20079;-72
2022/08/15 01:24:56;;;;;;;26.83;25.02;;;22.20;99.90;;;;;;5029537;28;20617;-71
2022/08/15 01:27:49;;;;;;;25.92;24.23;;;22.20;99.90;;;;;;5053090;28;20472;-71
2022/08/15 01:30:25;;;;;;;26.85;25.05;;;22.10;99.90;;;;;;5052078;28;21010;-72
2022/08/15 01:33:13;;;;;;;28.02;26.02;;;22.10;99.90;;;;;;5054967;28;20411;-72
2022/08/15 01:35:42;;;;;;;27.15;25.15;;;22.00;99.90;;;;;;5051516;28;20102;-72
2022/08/15 01:38:32;;;;;;;27.85;25.75;;;22.00;99.90;;;;;;5043065;28;20571;-71
2022/08/15 01:41:38;;;;;;;28.02;26.10;;;21.90;99.90;;;;;;5048816;28;20048;-71
2022/08/15 01:44:26;;;;;;;27.17;25.30;;;22.00;99.90;;;;;;5028145;28;20394;-72
2022/08/15 01:47:08;;;;;;;27.25;25.30;;;21.90;99.90;;;;;;5052384;28;20174;-71
2022/08/15 01:49:57;;;;;;;27.45;25.65;;;21.90;99.90;;;;;;5053005;28;20079;-72
2022/08/15 01:52:34;;;;;;;26.42;24.73;;;21.80;99.90;;;;;;5052214;28;20040;-71
2022/08/15 01:55:38;;;;;;;26.92;25.13;;;21.80;99.90;;;;;;5051644;28;20146;-71
2022/08/15 01:58:11;;;;;;;27.70;25.75;;;21.60;99.90;;;;;;5036633;28;20047;-72
2022/08/15 02:01:00;;;;;;;26.20;24.60;;;21.60;99.90;;;;;;5038464;28;20447;-72
2022/08/15 02:03:35;;;;;;;27.83;25.92;;;21.60;99.90;;;;;;5027058;28;20040;-72
2022/08/15 02:06:25;;;;;;;27.35;25.55;;;21.40;99.90;;;;;;5048141;28;20048;-72
2022/08/15 02:09:16;;;;;;;28.58;26.52;;;21.30;99.90;;;;;;5051786;28;20537;-72
2022/08/15 02:12:08;;;;;;;29.25;27.05;;;21.20;99.90;;;;;;5054684;28;20520;-72
2022/08/15 02:14:59;;;;;;;28.55;26.42;;;21.20;99.90;;;;;;5050859;28;20240;-71
2022/08/15 02:17:27;;;;;;;28.52;26.63;;;21.20;99.90;;;;;;5032916;28;20048;-72
2022/08/15 02:20:00;;;;;;;28.67;26.73;;;21.10;99.90;;;;;;5051899;28;20559;-72
2022/08/15 02:22:47;;;;;;;29.92;27.85;;;21.10;99.90;;;;;;5041766;28;20040;-71
2022/08/15 02:25:14;;;;;;;29.00;27.00;;;21.10;99.90;;;;;;5038949;28;20266;-72
2022/08/15 02:27:53;;;;;;;28.98;27.05;;;21.10;99.90;;;;;;5052000;28;20066;-74
2022/08/15 02:30:21;;;;;;;29.80;27.67;;;21.10;99.90;;;;;;5032965;28;21910;-72
2022/08/15 02:33:03;;;;;;;29.55;27.35;;;21.10;99.90;;;;;;5046385;28;20137;-71
2022/08/15 02:35:33;;;;;;;29.55;27.25;;;21.10;99.90;;;;;;5050844;28;20231;-72
2022/08/15 02:38:05;;;;;;;27.52;25.63;;;21.10;99.90;;;;;;5036933;28;20488;-71
2022/08/15 02:40:47;;;;;;;29.38;27.27;;;21.00;99.90;;;;;;5047483;28;20047;-73
2022/08/15 02:43:20;;;;;;;29.55;27.15;;;21.10;99.90;;;;;;5055396;22;20063;-77
2022/08/15 02:45:48;;;;;;;29.38;27.35;;;21.10;99.90;;;;;;5061744;28;20063;-77
2022/08/15 02:48:39;;;;;;;28.85;26.75;;;21.00;99.90;;;;;;5074276;28;20048;-76
2022/08/15 02:51:12;;;;;;;30.08;27.98;;;21.10;99.90;;;;;;5056703;28;20121;-76
2022/08/15 02:53:46;;;;;;;31.70;29.50;;;21.20;99.90;;;;;;5043559;28;20558;-76
2022/08/15 02:56:16;;;;;;;29.25;26.98;;;21.20;99.90;;;;;;5045245;28;20546;-76
2022/08/15 02:58:45;;;;;;;29.98;27.73;;;21.10;99.90;;;;;;5050423;28;20093;-76
2022/08/15 03:01:13;;;;;;;29.40;27.35;;;21.10;99.90;;;;;;5058188;28;20028;-76
2022/08/15 03:03:46;;;;;;;30.35;28.13;;;21.10;99.90;;;;;;5050189;28;20227;-75
2022/08/15 03:06:17;;;;;;;30.20;28.10;;;21.20;99.90;;;;;;5049945;28;20037;-75
2022/08/15 03:09:06;;;;;;;29.58;27.42;;;21.10;99.90;;;;;;5053621;28;20044;-76
2022/08/15 03:11:39;;;;;;;28.95;26.83;;;21.00;99.90;;;;;;5046781;28;20060;-77
2022/08/15 03:14:25;;;;;;;30.75;28.50;;;21.10;99.90;;;;;;5049471;28;20044;-76
2022/08/15 03:17:03;;;;;;;29.63;27.38;;;21.10;99.90;;;;;;5049256;28;20048;-76
2022/08/15 03:19:37;;;;;;;30.95;28.65;;;21.00;99.90;;;;;;5060953;28;20032;-76
2022/08/15 03:22:08;;;;;;;30.65;28.33;;;20.90;99.90;;;;;;5072301;28;20135;-75
2022/08/15 03:24:37;;;;;;;30.50;28.20;;;20.90;99.90;;;;;;5049587;28;20343;-75
2022/08/15 03:27:07;;;;;;;30.60;28.48;;;20.90;99.90;;;;;;5050500;28;20072;-76
2022/08/15 03:29:35;;;;;;;31.42;29.13;;;20.90;99.90;;;;;;5054784;28;20040;-76
2022/08/15 03:32:18;;;;;;;30.30;28.15;;;20.90;99.90;;;;;;5055595;28;20131;-75
2022/08/15 03:35:06;;;;;;;31.40;29.10;;;20.60;99.90;;;;;;5055232;28;20084;-76
2022/08/15 03:37:37;;;;;;;32.17;29.48;;;20.50;99.90;;;;;;5062563;28;20040;-76
2022/08/15 03:40:25;;;;;;;33.03;30.35;;;20.50;99.90;;;;;;5043913;28;20032;-76
2022/08/15 03:43:01;;;;;;;31.73;29.42;;;20.50;99.90;;;;;;5053218;28;20210;-77
2022/08/15 03:45:45;;;;;;;32.53;29.92;;;20.30;99.90;;;;;;5067952;28;20533;-75
2022/08/15 03:48:17;;;;;;;32.72;30.13;;;20.40;99.90;;;;;;5037770;28;20132;-76
2022/08/15 03:50:52;;;;;;;31.83;29.40;;;20.40;99.90;;;;;;5054778;28;20101;-76
2022/08/15 03:53:34;;;;;;;31.58;29.08;;;20.30;99.90;;;;;;5063867;28;20044;-76
2022/08/15 03:56:03;;;;;;;32.08;29.58;;;20.30;99.90;;;;;;5076379;28;20032;-77
2022/08/15 03:58:35;;;;;;;31.88;29.58;;;20.50;99.90;;;;;;5053671;28;20041;-75
2022/08/15 04:01:11;;;;;;;32.00;29.60;;;20.40;99.90;;;;;;5042436;28;21689;-77
2022/08/15 04:03:40;;;;;;;31.55;29.35;;;20.50;99.90;;;;;;5050072;28;20562;-76
2022/08/15 04:06:10;;;;;;;33.08;30.48;;;20.50;99.90;;;;;;5053225;28;20052;-77
2022/08/15 04:08:42;;;;;;;32.90;30.05;;;20.50;99.90;;;;;;5052622;28;20456;-76
2022/08/15 04:11:31;;;;;;;35.95;33.30;;;20.30;99.90;;;;;;5048535;28;20094;-76
2022/08/15 04:14:06;;;;;;;32.95;30.48;;;20.20;99.90;;;;;;5048510;28;20044;-76
2022/08/15 04:16:55;;;;;;;33.45;30.85;;;20.20;99.90;;;;;;5067789;28;20070;-75
2022/08/15 04:19:35;;;;;;;33.67;31.17;;;20.10;99.90;;;;;;5056324;28;20075;-76
2022/08/15 04:22:25;;;;;;;36.03;33.42;;;20.00;99.90;;;;;;5065324;28;20211;-76
2022/08/15 04:25:09;;;;;;;32.53;29.98;;;20.10;99.90;;;;;;5044318;28;20040;-76
2022/08/15 04:27:49;;;;;;;32.67;30.13;;;20.10;99.90;;;;;;5055610;28;20036;-75
2022/08/15 04:30:24;;;;;;;32.25;29.50;;;19.90;99.90;;;;;;5045898;28;20041;-76
2022/08/15 04:32:53;;;;;;;35.72;33.10;;;19.80;99.90;;;;;;5072308;28;20058;-76
2022/08/15 04:35:47;;;;;;;35.45;32.97;;;19.90;99.90;;;;;;5050987;28;20044;-76
2022/08/15 04:38:16;;;;;;;37.35;34.63;;;19.80;99.90;;;;;;5057009;28;20344;-77
2022/08/15 04:40:45;;;;;;;35.92;33.28;;;19.80;99.90;;;;;;5045172;28;20484;-75
2022/08/15 04:43:34;;;;;;;35.92;33.20;;;19.80;99.90;;;;;;5049164;28;20094;-75
2022/08/15 04:46:05;;;;;;;37.22;34.47;;;19.90;99.90;;;;;;5067203;28;20043;-76
2022/08/15 04:48:41;;;;;;;35.60;33.00;;;20.00;99.90;;;;;;5048471;28;20037;-75
2022/08/15 04:51:09;;;;;;;34.22;31.83;;;19.90;99.90;;;;;;5045742;28;20052;-77
2022/08/15 04:53:44;;;;;;;35.30;32.80;;;20.00;99.90;;;;;;5036748;28;20071;-76
2022/08/15 04:56:20;;;;;;;34.75;32.15;;;20.10;99.90;;;;;;5044699;28;20711;-76
2022/08/15 04:59:07;;;;;;;34.70;32.10;;;20.10;99.90;;;;;;5044663;28;20035;-75
2022/08/15 05:01:56;;;;;;;34.35;31.73;;;20.10;99.90;;;;;;5047979;28;20414;-77
2022/08/15 05:04:30;;;;;;;34.17;31.80;;;20.10;99.90;;;;;;5059477;28;20040;-76
2022/08/15 05:07:02;;;;;;;35.05;32.40;;;20.20;99.90;;;;;;5043085;28;20044;-76
2022/08/15 05:09:32;;;;;;;33.58;31.25;;;20.30;99.90;;;;;;5054464;28;20051;-76
2022/08/15 05:12:19;;;;;;;35.33;32.60;;;20.20;99.90;;;;;;5042870;28;21491;-76
2022/08/15 05:14:49;;;;;;;34.88;32.33;;;20.20;99.90;;;;;;5041467;28;20068;-75
2022/08/15 05:17:21;;;;;;;34.63;32.15;;;20.20;99.90;;;;;;5053180;28;20041;-76
2022/08/15 05:19:49;;;;;;;35.22;32.33;;;20.40;99.90;;;;;;5056409;28;20093;-75
2022/08/15 05:22:17;;;;;;;35.22;32.63;;;20.30;99.90;;;;;;5068235;28;20062;-75
2022/08/15 05:24:44;;;;;;;34.95;32.45;;;20.10;99.90;;;;;;5051097;28;20040;-76
2022/08/15 05:27:11;;;;;;;35.72;32.95;;;20.20;99.90;;;;;;5055716;28;20059;-75
2022/08/15 05:29:42;;;;;;;34.00;31.42;;;20.10;99.90;;;;;;5055068;28;20154;-75
2022/08/15 05:32:09;;;;;;;35.17;32.47;;;20.10;99.90;;;;;;5043260;28;20517;-75
2022/08/15 05:34:47;;;;;;;35.60;32.97;;;20.10;99.90;;;;;;5054439;28;20044;-75
2022/08/15 05:37:17;;;;;;;35.20;32.30;;;20.00;99.90;;;;;;5062146;28;20040;-78
2022/08/15 05:39:48;;;;;;;35.05;32.20;;;20.10;99.90;;;;;;5051667;28;20533;-76
2022/08/15 05:42:38;;;;;;;34.85;32.15;;;20.20;99.90;;;;;;5043169;28;20051;-76
2022/08/15 05:45:35;;;;;;;35.70;32.92;;;20.20;99.90;;;;;;5053027;28;20040;-77
2022/08/15 05:48:20;;;;;;;35.88;32.95;;;20.40;99.90;;;;;;5047141;28;20068;-75
2022/08/15 05:51:00;;;;;;;35.72;32.97;;;20.50;99.90;;;;;;5072080;28;20131;-76
2022/08/15 05:54:10;;;;;;;35.17;32.58;;;20.50;99.90;;;;;;5056122;28;20116;-76
2022/08/15 05:57:18;;;;;;;34.65;32.15;;;20.70;99.90;;;;;;5045114;28;20572;-77
2022/08/15 05:59:52;;;;;;;37.35;34.35;;;20.80;99.90;;;;;;5048254;28;20213;-77
2022/08/15 06:02:29;;;;;;;37.03;34.03;;;20.90;99.90;;;;;;5068328;28;20784;-78
2022/08/15 06:05:25;;;;;;;35.03;32.53;;;20.90;99.90;;;;;;5042497;28;20052;-76
2022/08/15 06:08:10;;;;;;;36.50;33.70;;;21.10;99.90;;;;;;5046768;28;20052;-78
2022/08/15 06:11:06;;;;;;;36.55;33.67;;;21.30;99.90;;;;;;5055928;28;20574;-74
2022/08/15 06:13:45;;;;;;;36.53;33.72;;;21.40;99.90;;;;;;5055695;28;20500;-74
2022/08/15 06:16:34;;;;;;;35.97;33.28;;;21.50;99.90;;;;;;5048315;28;20044;-76
2022/08/15 06:19:46;;;;;;;35.97;33.37;;;21.70;99.90;;;;;;5038583;28;20037;-75
2022/08/15 06:22:17;;;;;;;35.95;33.03;;;21.90;99.90;;;;;;5053166;28;20036;-73
2022/08/15 06:25:00;;;;;;;35.25;32.55;;;21.90;99.90;;;;;;5053862;28;20095;-74
2022/08/15 06:27:30;;;;;;;36.42;33.88;;;22.00;99.90;;;;;;5052484;28;20036;-75
2022/08/15 06:30:09;;;;;;;36.75;33.92;;;22.10;99.90;;;;;;5055289;28;20056;-75
2022/08/15 06:32:54;;;;;;;36.75;33.63;;;22.20;99.90;;;;;;5044756;28;20101;-75
2022/08/15 06:35:39;;;;;;;35.85;33.20;;;22.60;99.90;;;;;;5048224;28;20052;-75
2022/08/15 06:38:12;;;;;;;36.40;33.72;;;22.80;99.90;;;;;;5051489;28;20701;-75
2022/08/15 06:41:30;;;;;;;35.17;32.53;;;23.40;99.90;;;;;;5041657;28;20848;-78
2022/08/15 06:44:10;;;;;;;35.80;32.65;;;23.90;99.90;;;;;;5074599;28;20470;-77
2022/08/15 06:46:45;;;;;;;;;;;24.40;99.90;;;;;;5058025;28;20075;-75
2022/08/15 06:49:24;;;;;;;34.65;31.90;;;24.70;99.90;;;;;;5072145;28;19920;-74
2022/08/15 06:52:01;;;;;;;32.33;29.98;;;24.90;99.90;;;;;;5052781;28;20044;-75
2022/08/15 06:54:40;;;;;;;33.85;31.50;;;25.20;99.90;;;;;;5044671;28;20410;-75
2022/08/15 06:57:37;;;;;;;33.22;30.95;;;25.50;99.90;;;;;;5048510;28;20032;-74
2022/08/15 07:00:15;;;;;;;33.47;31.15;;;26.00;99.90;;;;;;5043611;28;20044;-75
2022/08/15 07:03:15;;;;;;;33.40;31.00;;;26.10;99.90;;;;;;5051418;28;20443;-77
2022/08/15 07:05:48;;;;;;;34.20;31.75;;;26.30;99.90;;;;;;5065980;28;20152;-76
2022/08/15 07:08:44;;;;;;;34.50;32.17;;;26.20;99.90;;;;;;5058953;28;20418;-75
2022/08/15 07:11:20;;;;;;;36.30;33.70;;;26.20;99.90;;;;;;5055021;28;20052;-76
2022/08/15 07:14:07;;;;;;;36.63;34.13;;;26.30;99.90;;;;;;5055484;28;20044;-75
2022/08/15 07:17:05;;;;;;;36.13;33.67;;;26.40;99.90;;;;;;5068684;28;20048;-76
2022/08/15 07:19:35;;;;;;;35.88;33.42;;;26.70;99.90;;;;;;5049996;28;20090;-75
2022/08/15 07:22:12;;;;;;;36.17;33.88;;;26.90;99.90;;;;;;5032739;28;20036;-75
2022/08/15 07:24:52;;;;;;;35.85;33.65;;;27.10;99.90;;;;;;5059384;28;20047;-75
2022/08/15 07:27:28;;;;;;;36.50;34.10;;;27.30;99.90;;;;;;5051153;28;20119;-74
2022/08/15 07:30:14;;;;;;;35.70;33.53;;;27.50;99.90;;;;;;5052311;28;20048;-76
2022/08/15 07:32:41;;;;;;;35.67;33.15;;;27.70;99.90;;;;;;5063701;28;20044;-76
2022/08/15 07:35:12;;;;;;;37.38;34.78;;;27.70;99.90;;;;;;5054196;28;20041;-75
2022/08/15 07:37:47;;;;;;;37.13;34.53;;;27.50;99.90;;;;;;5054208;28;20135;-77
2022/08/15 07:40:22;;;;;;;36.85;34.50;;;27.30;99.90;;;;;;5049803;28;20107;-74
2022/08/15 07:42:57;;;;;;;36.88;34.67;;;27.50;99.90;;;;;;5054153;28;20525;-77
2022/08/15 07:45:40;;;;;;;36.63;34.33;;;27.60;99.90;;;;;;5047785;28;20097;-76
2022/08/15 07:48:29;;;;;;;37.28;34.97;;;27.60;99.90;;;;;;5047469;28;20051;-74
2022/08/15 07:51:15;;;;;;;37.78;35.33;;;27.20;99.90;;;;;;5051987;28;20117;-70
2022/08/15 07:54:05;;;;;;;36.85;34.45;;;27.20;99.90;;;;;;5046001;28;20036;-70
2022/08/15 07:56:57;;;;;;;38.10;35.75;;;26.90;99.90;;;;;;5045129;28;20036;-72
2022/08/15 07:59:30;;;;;;;35.80;33.60;;;26.80;99.90;;;;;;5059290;28;20104;-72
2022/08/15 08:02:32;;;;;;;35.75;33.42;;;26.60;99.90;;;;;;5042676;28;20054;-69
2022/08/15 08:05:06;;;;;;;35.92;33.33;;;26.40;99.90;;;;;;5040119;28;20044;-72
2022/08/15 08:07:49;;;;;;;36.03;33.50;;;26.40;99.90;;;;;;5051515;28;20045;-71
2022/08/15 08:10:27;;;;;;;34.75;32.65;;;26.30;99.90;;;;;;5047620;28;20048;-72
2022/08/15 08:13:05;;;;;;;35.15;32.55;;;26.10;99.90;;;;;;5052021;28;20055;-72
2022/08/15 08:16:24;;;;;;;35.05;32.67;;;25.90;99.90;;;;;;5067036;28;20562;-73
2022/08/15 08:19:22;;;;;;;36.20;33.53;;;25.60;99.90;;;;;;5047242;28;20142;-71
2022/08/15 08:22:07;;;;;;;35.40;32.80;;;25.70;99.90;;;;;;5043997;28;20449;-74
2022/08/15 08:25:14;;;;;;;34.83;32.58;;;25.80;99.90;;;;;;5068100;28;20128;-72
2022/08/15 08:28:06;;;;;;;33.42;31.30;;;26.00;99.90;;;;;;5043029;28;20123;-74
2022/08/15 08:31:04;;;;;;;34.20;32.00;;;26.30;99.90;;;;;;5048489;28;20050;-74
2022/08/15 08:33:53;;;;;;;34.10;31.75;;;26.30;99.90;;;;;;5041724;28;20048;-73
2022/08/15 08:36:35;;;;;;;33.30;30.88;;;26.50;99.90;;;;;;5068810;28;20040;-74
2022/08/15 08:39:15;;;;;;;33.22;31.17;;;26.30;99.90;;;;;;5071975;28;20091;-73
2022/08/15 08:42:06;;;;;;;34.03;31.92;;;26.40;99.90;;;;;;5046128;28;20144;-73
2022/08/15 08:45:23;;;;;;;33.63;31.58;;;26.30;99.90;;;;;;5074221;22;20045;-72
2022/08/15 08:48:18;;;;;;;35.45;33.08;;;26.50;99.90;;;;;;5051687;28;20048;-72
2022/08/15 08:51:22;;;;;;;36.38;33.97;;;26.80;99.90;;;;;;5028331;28;20051;-72
2022/08/15 08:54:05;;;;;;;35.13;32.78;;;27.30;99.90;;;;;;5030286;28;20045;-70
2022/08/15 08:56:45;;;;;;;33.53;31.17;;;27.50;99.90;;;;;;5028961;28;20057;-70
2022/08/15 08:59:17;;;;;;;34.60;32.20;;;27.30;99.90;;;;;;5030192;28;20202;-70
2022/08/15 09:01:48;;;;;;;34.63;31.88;;;27.10;99.90;;;;;;5029881;28;20282;-72
2022/08/15 09:04:23;;;;;;;34.17;31.52;;;27.00;99.90;;;;;;5026799;28;20132;-70
2022/08/15 09:06:52;;;;;;;34.70;32.03;;;26.80;99.90;;;;;;5027920;28;20041;-71
2022/08/15 09:09:29;;;;;;;33.58;31.08;;;26.80;99.90;;;;;;5029672;28;20245;-70
2022/08/15 09:15:21;;;;;;;34.80;32.50;;;26.70;99.90;;;;;;5026005;28;20810;-72
2022/08/15 09:18:16;;;;;;;33.65;31.50;;;26.70;99.90;;;;;;5027339;28;20500;-71
2022/08/15 09:20:46;;;;;;;33.83;31.65;;;26.60;99.90;;;;;;5030413;28;20064;-72
2022/08/15 09:23:20;;;;;;;31.80;29.52;;;26.40;99.90;;;;;;5027509;28;20041;-72
2022/08/15 09:26:06;;;;;;;31.20;28.92;;;26.40;99.90;;;;;;5032836;28;20103;-71
2022/08/15 09:28:53;;;;;;;33.13;30.83;;;26.30;99.90;;;;;;5040494;28;20142;-72
2022/08/15 09:31:26;;;;;;;30.80;28.90;;;26.20;99.90;;;;;;5028024;28;20049;-70
2022/08/15 09:34:44;;;;;;;33.40;31.05;;;26.00;99.90;;;;;;5028892;28;20697;-71
2022/08/15 09:37:14;;;;;;;32.58;30.30;;;25.80;99.90;;;;;;5026954;28;20459;-71
2022/08/15 09:39:59;;;;;;;32.75;30.55;;;25.60;99.90;;;;;;5028311;28;20159;-71
2022/08/15 09:42:31;;;;;;;31.77;29.67;;;25.60;99.90;;;;;;5045946;28;20105;-69
2022/08/15 09:45:08;;;;;;;31.45;29.15;;;25.70;99.90;;;;;;5046354;28;20040;-71
2022/08/15 09:48:01;;;;;;;31.45;29.13;;;25.80;99.90;;;;;;5030552;28;20135;-71
2022/08/15 09:51:04;;;;;;;32.20;29.90;;;25.90;99.90;;;;;;5032436;28;20397;-70
2022/08/15 09:53:48;;;;;;;30.95;28.40;;;25.80;99.90;;;;;;5032368;28;20041;-71
2022/08/15 09:56:31;;;;;;;29.58;27.20;;;25.70;99.90;;;;;;5031780;28;20033;-69
2022/08/15 09:59:25;;;;;;;30.65;28.45;;;25.60;99.90;;;;;;5033169;28;20045;-71
2022/08/15 10:02:09;;;;;;;33.22;31.02;;;25.30;99.90;;;;;;5061724;28;20477;-71
2022/08/15 10:04:56;;;;;;;32.15;29.40;;;25.00;99.90;;;;;;5031082;28;20610;-70
2022/08/15 10:07:48;;;;;;;31.38;29.20;;;24.80;99.90;;;;;;5031087;28;20459;-70
2022/08/15 10:10:15;;;;;;;31.52;29.13;;;24.70;99.90;;;;;;5029891;28;20542;-71
2022/08/15 10:13:09;;;;;;;29.75;27.75;;;24.70;99.90;;;;;;5033746;28;20112;-70
2022/08/15 10:15:46;;;;;;;30.03;28.13;;;24.70;99.90;;;;;;5009265;28;20063;-70
2022/08/15 10:18:25;;;;;;;30.80;28.52;;;24.80;99.90;;;;;;5028526;28;20288;-68
2022/08/15 10:21:17;;;;;;;29.88;27.90;;;24.90;99.90;;;;;;5037331;28;20048;-70
2022/08/15 10:23:52;;;;;;;30.45;28.02;;;24.90;99.90;;;;;;5053237;28;20052;-70
2022/08/15 10:26:27;;;;;;;29.17;27.13;;;25.10;99.90;;;;;;5041938;28;20052;-69
2022/08/15 10:29:20;;;;;;;30.45;28.45;;;25.20;99.90;;;;;;5033314;28;20467;-70
2022/08/15 10:31:55;;;;;;;30.58;28.35;;;25.40;99.90;;;;;;5032270;28;20388;-69
2022/08/15 10:35:01;;;;;;;29.02;27.02;;;25.50;99.90;;;;;;5035753;28;20071;-71
2022/08/15 10:37:51;;;;;;;31.35;29.23;;;25.20;99.90;;;;;;5048079;28;20128;-70
2022/08/15 10:40:34;;;;;;;31.80;29.60;;;24.70;99.90;;;;;;5049184;28;20051;-71
2022/08/15 10:43:22;;;;;;;30.70;28.83;;;24.60;99.90;;;;;;5051706;28;20051;-72
2022/08/15 10:46:44;;;;;;;31.75;29.60;;;24.50;99.90;;;;;;5047088;28;20072;-70
2022/08/15 10:49:30;;;;;;;30.63;28.48;;;24.40;99.90;;;;;;5007276;28;20041;-70
2022/08/15 10:52:26;;;;;;;31.60;29.58;;;24.40;99.90;;;;;;5049931;28;20044;-71
2022/08/15 10:54:56;;;;;;;31.52;29.23;;;24.30;99.90;;;;;;5048874;28;20044;-71
2022/08/15 10:57:26;;;;;;;31.10;29.08;;;24.40;99.90;;;;;;5050063;28;20036;-71
2022/08/15 11:00:00;;;;;;;31.50;29.42;;;24.30;99.90;;;;;;5053669;28;20441;-72
2022/08/15 11:02:51;;;;;;;30.42;28.42;;;24.40;99.90;;;;;;5030931;28;20052;-72
2022/08/15 11:05:37;;;;;;;31.20;29.10;;;24.30;99.90;;;;;;5033005;28;20418;-72
2022/08/15 11:08:13;;;;;;;31.10;29.10;;;24.40;99.90;;;;;;5034198;28;20299;-71
2022/08/15 11:10:44;;;;;;;30.40;28.52;;;24.40;99.90;;;;;;5034121;28;20061;-70
2022/08/15 11:13:14;;;;;;;31.35;29.35;;;24.40;99.90;;;;;;5027526;28;20049;-70
2022/08/15 11:15:56;;;;;;;31.55;29.55;;;24.10;99.90;;;;;;5032736;28;20383;-70
2022/08/15 11:18:36;;;;;;;33.80;31.50;;;24.00;99.90;;;;;;5029232;28;20060;-71
2022/08/15 11:21:31;;;;;;;34.05;31.65;;;24.10;99.90;;;;;;5030948;28;20122;-70
2022/08/15 11:24:08;;;;;;;31.67;29.58;;;24.00;99.90;;;;;;5028594;28;20515;-71
2022/08/15 11:26:42;;;;;;;34.17;31.70;;;23.90;99.90;;;;;;5031205;28;20041;-71
2022/08/15 11:29:17;;;;;;;33.53;31.35;;;23.80;99.90;;;;;;5031830;28;20135;-71
2022/08/15 11:31:50;;;;;;;34.38;31.98;;;23.70;99.90;;;;;;5030696;28;20086;-71
2022/08/15 11:34:33;;;;;;;34.03;31.58;;;23.90;99.90;;;;;;5028024;28;20069;-71
2022/08/15 11:37:12;;;;;;;33.15;30.95;;;24.10;99.90;;;;;;5011712;28;20045;-70
2022/08/15 11:39:52;;;;;;;34.17;31.88;;;24.30;99.90;;;;;;5029768;28;20165;-71
2022/08/15 11:42:23;;;;;;;32.33;29.85;;;24.40;99.90;;;;;;5027501;28;20059;-70
2022/08/15 11:44:52;;;;;;;34.42;32.05;;;24.70;99.90;;;;;;5032208;28;20052;-70
2022/08/15 11:47:19;;;;;;;33.83;31.63;;;24.70;99.90;;;;;;5008584;28;20450;-71
2022/08/15 11:49:51;;;;;;;35.10;32.47;;;24.70;99.90;;;;;;5031189;28;20129;-71
2022/08/15 11:52:46;;;;;;;34.33;31.90;;;24.70;99.90;;;;;;5026601;28;20150;-70
2022/08/15 11:55:40;;;;;;;34.55;31.98;;;24.60;99.90;;;;;;5028796;28;20296;-71
2022/08/15 11:58:14;;;;;;;32.58;30.38;;;24.40;99.90;;;;;;5027140;28;20037;-70
2022/08/15 12:00:49;;;;;;;33.63;31.20;;;24.40;99.90;;;;;;5033032;28;20530;-71
2022/08/15 12:03:20;;;;;;;32.15;30.15;;;24.30;99.90;;;;;;5026073;28;20132;-70
2022/08/15 12:06:13;;;;;;;31.40;29.58;;;24.40;99.90;;;;;;5028887;28;20049;-71
2022/08/15 12:09:14;;;;;;;31.67;29.33;;;24.30;99.90;;;;;;5029279;28;20053;-70
2022/08/15 12:11:44;;;;;;;32.33;30.02;;;24.30;99.90;;;;;;5031147;28;20049;-72
2022/08/15 12:14:24;;;;;;;32.85;30.55;;;24.30;99.90;;;;;;5033434;28;20040;-70
2022/08/15 12:17:03;;;;;;;35.55;32.65;;;24.10;99.90;;;;;;5031621;28;20055;-72
2022/08/15 12:19:37;;;;;;;34.67;32.22;;;24.10;99.90;;;;;;5027624;28;20329;-70
2022/08/15 12:22:30;;;;;;;33.47;30.92;;;23.90;99.90;;;;;;5027253;28;20064;-72
2022/08/15 12:25:18;;;;;;;34.45;31.77;;;23.70;99.90;;;;;;5027031;28;20041;-70
2022/08/15 12:28:05;;;;;;;34.42;32.22;;;23.60;99.90;;;;;;5028037;28;20119;-72
2022/08/15 12:31:26;;;;;;;33.55;31.30;;;23.40;99.90;;;;;;5026870;28;20056;-71
2022/08/15 12:34:04;;;;;;;33.30;31.00;;;23.30;99.90;;;;;;5029021;28;20052;-74
2022/08/15 12:36:51;;;;;;;33.67;30.83;;;23.40;99.90;;;;;;5030547;28;20122;-70
2022/08/15 12:39:32;;;;;;;32.33;30.20;;;23.30;99.90;;;;;;5030753;28;20045;-70
2022/08/15 12:42:00;;;;;;;33.13;30.63;;;23.40;99.90;;;;;;5030971;28;20049;-71
2022/08/15 12:44:50;;;;;;;31.48;29.13;;;23.40;99.90;;;;;;5025426;28;20374;-70
2022/08/15 12:47:18;;;;;;;31.45;29.08;;;23.40;99.90;;;;;;5027609;28;20041;-69
2022/08/15 12:49:44;;;;;;;32.97;30.55;;;23.50;99.90;;;;;;5025915;28;20458;-71
2022/08/15 12:52:14;;;;;;;31.45;29.02;;;23.60;99.90;;;;;;5027237;28;20049;-71
2022/08/15 12:54:45;;;;;;;32.67;29.95;;;23.60;99.90;;;;;;5029248;28;20045;-70
2022/08/15 12:57:12;;;;;;;31.90;29.23;;;23.70;99.90;;;;;;5027695;28;20449;-70
2022/08/15 12:59:44;;;;;;;30.17;28.27;;;23.90;99.90;;;;;;5029353;28;20045;-71
2022/08/15 13:02:13;;;;;;;29.80;27.58;;;23.80;99.90;;;;;;5026869;28;20048;-70
2022/08/15 13:05:00;;;;;;;28.67;26.88;;;23.90;99.90;;;;;;5031870;28;20132;-70
2022/08/15 13:07:29;;;;;;;29.50;27.50;;;23.90;99.90;;;;;;5010050;28;20045;-70
2022/08/15 13:09:59;;;;;;;29.30;27.52;;;24.00;99.90;;;;;;5014875;28;20550;-71
2022/08/15 13:12:45;;;;;;;30.02;27.98;;;24.10;99.90;;;;;;5032876;28;20044;-70
2022/08/15 13:15:12;;;;;;;30.30;28.10;;;24.00;99.90;;;;;;5027374;28;20103;-70
2022/08/15 13:17:39;;;;;;;29.83;27.77;;;24.00;99.90;;;;;;5032913;28;20116;-70
2022/08/15 13:26:20;;;;;;;30.17;28.37;;;24.30;99.90;;;;;;5031661;28;20045;-69
2022/08/15 13:28:59;;;;;;;31.08;28.77;;;24.60;99.90;;;;;;5035274;28;20072;-69
2022/08/15 13:31:27;;;;;;;30.92;28.88;;;24.70;99.90;;;;;;5016185;28;20036;-72
2022/08/15 13:33:53;;;;;;;29.98;28.08;;;25.00;99.90;;;;;;5035335;28;20037;-70
2022/08/15 13:36:27;;;;;;;29.50;27.58;;;25.40;99.90;;;;;;5028545;28;20586;-71
2022/08/15 13:38:57;;;;;;;29.65;27.75;;;25.60;99.90;;;;;;5033775;28;20091;-71
2022/08/15 13:41:26;;;;;;;28.90;27.20;;;25.70;99.90;;;;;;5026628;28;20047;-71
2022/08/15 13:44:15;;;;;;;29.42;27.73;;;25.70;99.90;;;;;;5032801;28;20053;-72